sensor_id;sensor_type;location;lat;lon;timestamp;temperature;humidity
35960;DHT22;22043;50.970;7.192;2022-10-16T00:00:35;14.60;99.90
35960;DHT22;22043;50.970;7.192;2022-10-16T00:03:02;14.60;99.90
35960;DHT22;22043;50.970;7.192;2022-10-16T00:05:29;14.60;99.90
35960;DHT22;22043;50.970;7.192;2022-10-16T00:07:55;14.60;99.90
35960;DHT22;22043;50.970;7.192;2022-10-16T00:10:21;14.60;99.90
35960;DHT22;22043;50.970;7.192;2022-10-16T00:12:46;14.60;99.90
35960;DHT22;22043;50.970;7.192;2022-10-16T00:15:12;14.60;99.90
35960;DHT22;22043;50.970;7.192;2022-10-16T00:17:38;14.60;99.90
35960;DHT22;22043;50.970;7.192;2022-10-16T00:20:05;14.60;99.90
35960;DHT22;22043;50.970;7.192;2022-10-16T00:22:31;14.60;99.90
35960;DHT22;22043;50.970;7.192;2022-10-16T00:24:58;14.60;99.90
35960;DHT22;22043;50.970;7.192;2022-10-16T00:27:25;14.60;99.90
35960;DHT22;22043;50.970;7.192;2022-10-16T00:29:52;14.60;99.90
35960;DHT22;22043;50.970;7.192;2022-10-16T00:32:19;14.60;99.90
35960;DHT22;22043;50.970;7.192;2022-10-16T00:34:45;14.60;99.90
35960;DHT22;22043;50.970;7.192;2022-10-16T00:37:12;14.60;99.90
35960;DHT22;22043;50.970;7.192;2022-10-16T00:39:37;14.60;99.90
35960;DHT22;22043;50.970;7.192;2022-10-16T00:42:03;14.60;99.90
35960;DHT22;22043;50.970;7.192;2022-10-16T00:44:53;14.60;99.90
35960;DHT22;22043;50.970;7.192;2022-10-16T00:47:28;14.60;99.90
35960;DHT22;22043;50.970;7.192;2022-10-16T00:50:06;14.60;99.90
35960;DHT22;22043;50.970;7.192;2022-10-16T00:52:33;14.60;99.90
35960;DHT22;22043;50.970;7.192;2022-10-16T00:55:00;14.50;99.90
35960;DHT22;22043;50.970;7.192;2022-10-16T00:57:27;14.60;99.90
35960;DHT22;22043;50.970;7.192;2022-10-16T00:59:53;14.50;99.90
35960;DHT22;22043;50.970;7.192;2022-10-16T01:02:19;14.50;99.90
35960;DHT22;22043;50.970;7.192;2022-10-16T01:04:48;14.50;99.90
35960;DHT22;22043;50.970;7.192;2022-10-16T01:15:54;14.40;99.90
35960;DHT22;22043;50.970;7.192;2022-10-16T01:18:39;14.40;99.90
35960;DHT22;22043;50.970;7.192;2022-10-16T01:21:10;14.40;99.90
35960;DHT22;22043;50.970;7.192;2022-10-16T01:29:53;14.40;99.90
35960;DHT22;22043;50.970;7.192;2022-10-16T01:32:41;14.30;99.90
35960;DHT22;22043;50.970;7.192;2022-10-16T01:35:15;14.30;99.90
35960;DHT22;22043;50.970;7.192;2022-10-16T01:37:48;14.20;99.90
35960;DHT22;22043;50.970;7.192;2022-10-16T01:40:18;14.20;99.90
35960;DHT22;22043;50.970;7.192;2022-10-16T01:42:46;14.10;99.90
35960;DHT22;22043;50.970;7.192;2022-10-16T01:45:15;14.10;99.90
35960;DHT22;22043;50.970;7.192;2022-10-16T01:47:44;14.20;99.90
35960;DHT22;22043;50.970;7.192;2022-10-16T01:50:13;14.10;99.90
35960;DHT22;22043;50.970;7.192;2022-10-16T01:52:43;14.10;99.90
35960;DHT22;22043;50.970;7.192;2022-10-16T01:55:13;14.10;99.90
35960;DHT22;22043;50.970;7.192;2022-10-16T01:57:42;14.10;99.90
35960;DHT22;22043;50.970;7.192;2022-10-16T02:00:12;14.00;99.90
35960;DHT22;22043;50.970;7.192;2022-10-16T02:02:41;14.00;99.90
35960;DHT22;22043;50.970;7.192;2022-10-16T02:07:48;14.00;99.90
35960;DHT22;22043;50.970;7.192;2022-10-16T02:10:15;14.00;99.90
35960;DHT22;22043;50.970;7.192;2022-10-16T02:12:48;14.00;99.90
35960;DHT22;22043;50.970;7.192;2022-10-16T02:15:15;13.90;99.90
35960;DHT22;22043;50.970;7.192;2022-10-16T02:17:48;14.00;99.90
35960;DHT22;22043;50.970;7.192;2022-10-16T02:20:27;14.00;99.90
35960;DHT22;22043;50.970;7.192;2022-10-16T02:22:54;14.00;99.90
35960;DHT22;22043;50.970;7.192;2022-10-16T02:25:30;14.00;99.90
35960;DHT22;22043;50.970;7.192;2022-10-16T02:30:47;14.00;99.90
35960;DHT22;22043;50.970;7.192;2022-10-16T02:33:16;14.10;99.90
35960;DHT22;22043;50.970;7.192;2022-10-16T02:35:46;14.10;99.90
35960;DHT22;22043;50.970;7.192;2022-10-16T02:38:20;14.10;99.90
35960;DHT22;22043;50.970;7.192;2022-10-16T02:40:52;14.10;99.90
35960;DHT22;22043;50.970;7.192;2022-10-16T02:43:18;14.10;99.90
35960;DHT22;22043;50.970;7.192;2022-10-16T02:45:44;14.10;99.90
35960;DHT22;22043;50.970;7.192;2022-10-16T02:48:10;14.10;99.90
35960;DHT22;22043;50.970;7.192;2022-10-16T02:50:35;14.10;99.90
35960;DHT22;22043;50.970;7.192;2022-10-16T02:53:01;14.20;99.90
35960;DHT22;22043;50.970;7.192;2022-10-16T02:55:27;14.20;99.90
35960;DHT22;22043;50.970;7.192;2022-10-16T02:57:53;14.20;99.90
35960;DHT22;22043;50.970;7.192;2022-10-16T03:00:20;14.30;99.90
35960;DHT22;22043;50.970;7.192;2022-10-16T03:02:45;14.20;99.90
35960;DHT22;22043;50.970;7.192;2022-10-16T03:05:12;14.30;99.90
35960;DHT22;22043;50.970;7.192;2022-10-16T03:07:38;14.30;99.90
35960;DHT22;22043;50.970;7.192;2022-10-16T03:10:04;14.30;99.90
35960;DHT22;22043;50.970;7.192;2022-10-16T03:12:30;14.30;99.90
35960;DHT22;22043;50.970;7.192;2022-10-16T03:14:56;14.30;99.90
35960;DHT22;22043;50.970;7.192;2022-10-16T03:17:22;14.30;99.90
35960;DHT22;22043;50.970;7.192;2022-10-16T03:19:48;14.30;99.90
35960;DHT22;22043;50.970;7.192;2022-10-16T03:22:14;14.30;99.90
35960;DHT22;22043;50.970;7.192;2022-10-16T03:24:40;14.30;99.90
35960;DHT22;22043;50.970;7.192;2022-10-16T03:27:05;14.30;99.90
35960;DHT22;22043;50.970;7.192;2022-10-16T03:29:31;14.30;99.90
35960;DHT22;22043;50.970;7.192;2022-10-16T03:31:58;14.30;99.90
35960;DHT22;22043;50.970;7.192;2022-10-16T03:34:24;14.30;99.90
35960;DHT22;22043;50.970;7.192;2022-10-16T03:36:51;14.30;99.90
35960;DHT22;22043;50.970;7.192;2022-10-16T03:39:16;14.30;99.90
35960;DHT22;22043;50.970;7.192;2022-10-16T03:41:42;14.30;99.90
35960;DHT22;22043;50.970;7.192;2022-10-16T03:44:08;14.30;99.90
35960;DHT22;22043;50.970;7.192;2022-10-16T03:46:34;14.20;99.90
35960;DHT22;22043;50.970;7.192;2022-10-16T03:48:59;14.30;99.90
35960;DHT22;22043;50.970;7.192;2022-10-16T03:51:25;14.30;99.90
35960;DHT22;22043;50.970;7.192;2022-10-16T03:53:50;14.30;99.90
35960;DHT22;22043;50.970;7.192;2022-10-16T03:56:16;14.30;99.90
35960;DHT22;22043;50.970;7.192;2022-10-16T03:58:42;14.30;99.90
35960;DHT22;22043;50.970;7.192;2022-10-16T04:01:07;14.30;99.90
35960;DHT22;22043;50.970;7.192;2022-10-16T04:03:33;14.30;99.90
35960;DHT22;22043;50.970;7.192;2022-10-16T04:05:59;14.30;99.90
35960;DHT22;22043;50.970;7.192;2022-10-16T04:08:24;14.30;99.90
35960;DHT22;22043;50.970;7.192;2022-10-16T04:10:50;14.30;99.90
35960;DHT22;22043;50.970;7.192;2022-10-16T04:13:16;14.30;99.90
35960;DHT22;22043;50.970;7.192;2022-10-16T04:15:42;14.30;99.90
35960;DHT22;22043;50.970;7.192;2022-10-16T04:18:09;14.30;99.90
35960;DHT22;22043;50.970;7.192;2022-10-16T04:20:35;14.30;99.90
35960;DHT22;22043;50.970;7.192;2022-10-16T04:23:00;14.30;99.90
35960;DHT22;22043;50.970;7.192;2022-10-16T04:25:26;14.30;99.90
35960;DHT22;22043;50.970;7.192;2022-10-16T04:27:55;14.30;99.90
35960;DHT22;22043;50.970;7.192;2022-10-16T04:30:21;14.30;99.90
35960;DHT22;22043;50.970;7.192;2022-10-16T04:32:51;14.40;99.90
35960;DHT22;22043;50.970;7.192;2022-10-16T04:35:17;14.40;99.90
35960;DHT22;22043;50.970;7.192;2022-10-16T04:37:43;14.40;99.90
35960;DHT22;22043;50.970;7.192;2022-10-16T04:40:09;14.40;99.90
35960;DHT22;22043;50.970;7.192;2022-10-16T04:42:35;14.40;99.90
35960;DHT22;22043;50.970;7.192;2022-10-16T04:45:00;14.40;99.90
35960;DHT22;22043;50.970;7.192;2022-10-16T04:47:26;14.40;99.90
35960;DHT22;22043;50.970;7.192;2022-10-16T04:49:52;14.40;99.90
35960;DHT22;22043;50.970;7.192;2022-10-16T04:52:17;14.40;99.90
35960;DHT22;22043;50.970;7.192;2022-10-16T04:54:44;14.40;99.90
35960;DHT22;22043;50.970;7.192;2022-10-16T04:57:11;14.40;99.90
35960;DHT22;22043;50.970;7.192;2022-10-16T04:59:36;14.30;99.90
35960;DHT22;22043;50.970;7.192;2022-10-16T05:02:03;14.30;99.90
35960;DHT22;22043;50.970;7.192;2022-10-16T05:04:28;14.30;99.90
35960;DHT22;22043;50.970;7.192;2022-10-16T05:06:54;14.30;99.90
35960;DHT22;22043;50.970;7.192;2022-10-16T05:09:20;14.30;99.90
35960;DHT22;22043;50.970;7.192;2022-10-16T05:11:45;14.30;99.90
35960;DHT22;22043;50.970;7.192;2022-10-16T05:14:11;14.30;99.90
35960;DHT22;22043;50.970;7.192;2022-10-16T05:16:37;14.20;99.90
35960;DHT22;22043;50.970;7.192;2022-10-16T05:19:03;14.20;99.90
35960;DHT22;22043;50.970;7.192;2022-10-16T05:21:28;14.20;99.90
35960;DHT22;22043;50.970;7.192;2022-10-16T05:23:54;14.20;99.90
35960;DHT22;22043;50.970;7.192;2022-10-16T05:26:21;14.20;99.90
35960;DHT22;22043;50.970;7.192;2022-10-16T05:28:46;14.20;99.90
35960;DHT22;22043;50.970;7.192;2022-10-16T05:31:12;14.20;99.90
35960;DHT22;22043;50.970;7.192;2022-10-16T05:33:38;14.10;99.90
35960;DHT22;22043;50.970;7.192;2022-10-16T05:36:08;14.10;99.90
35960;DHT22;22043;50.970;7.192;2022-10-16T05:38:35;14.10;99.90
35960;DHT22;22043;50.970;7.192;2022-10-16T05:41:02;14.10;99.90
35960;DHT22;22043;50.970;7.192;2022-10-16T05:43:28;14.20;99.90
35960;DHT22;22043;50.970;7.192;2022-10-16T05:46:02;14.20;99.90
35960;DHT22;22043;50.970;7.192;2022-10-16T05:48:29;14.10;99.90
35960;DHT22;22043;50.970;7.192;2022-10-16T05:51:02;14.10;99.90
35960;DHT22;22043;50.970;7.192;2022-10-16T05:53:29;14.10;99.90
35960;DHT22;22043;50.970;7.192;2022-10-16T05:55:55;14.10;99.90
35960;DHT22;22043;50.970;7.192;2022-10-16T05:58:22;14.10;99.90
35960;DHT22;22043;50.970;7.192;2022-10-16T06:01:15;14.10;99.90
35960;DHT22;22043;50.970;7.192;2022-10-16T06:03:41;14.10;99.90
35960;DHT22;22043;50.970;7.192;2022-10-16T06:06:08;14.10;99.90
35960;DHT22;22043;50.970;7.192;2022-10-16T06:08:34;14.00;99.90
35960;DHT22;22043;50.970;7.192;2022-10-16T06:11:04;14.00;99.90
35960;DHT22;22043;50.970;7.192;2022-10-16T06:13:30;14.00;99.90
35960;DHT22;22043;50.970;7.192;2022-10-16T06:15:58;14.00;99.90
35960;DHT22;22043;50.970;7.192;2022-10-16T06:18:25;14.00;99.90
35960;DHT22;22043;50.970;7.192;2022-10-16T06:20:51;13.90;99.90
35960;DHT22;22043;50.970;7.192;2022-10-16T06:23:16;13.90;99.90
35960;DHT22;22043;50.970;7.192;2022-10-16T06:25:42;13.90;99.90
35960;DHT22;22043;50.970;7.192;2022-10-16T06:28:07;13.90;99.90
35960;DHT22;22043;50.970;7.192;2022-10-16T06:30:33;13.90;99.90
35960;DHT22;22043;50.970;7.192;2022-10-16T06:32:59;13.90;99.90
35960;DHT22;22043;50.970;7.192;2022-10-16T06:35:24;13.90;99.90
35960;DHT22;22043;50.970;7.192;2022-10-16T06:37:50;14.00;99.90
35960;DHT22;22043;50.970;7.192;2022-10-16T06:40:17;14.00;99.90
35960;DHT22;22043;50.970;7.192;2022-10-16T06:42:43;14.00;99.90
35960;DHT22;22043;50.970;7.192;2022-10-16T06:45:09;14.00;99.90
35960;DHT22;22043;50.970;7.192;2022-10-16T06:47:35;14.10;99.90
35960;DHT22;22043;50.970;7.192;2022-10-16T06:50:00;14.10;99.90
35960;DHT22;22043;50.970;7.192;2022-10-16T06:52:28;14.10;99.90
35960;DHT22;22043;50.970;7.192;2022-10-16T06:54:53;14.10;99.90
35960;DHT22;22043;50.970;7.192;2022-10-16T06:57:19;14.10;99.90
35960;DHT22;22043;50.970;7.192;2022-10-16T06:59:45;14.20;99.90
35960;DHT22;22043;50.970;7.192;2022-10-16T07:02:10;14.20;99.90
35960;DHT22;22043;50.970;7.192;2022-10-16T07:04:36;14.30;99.90
35960;DHT22;22043;50.970;7.192;2022-10-16T07:07:02;14.30;99.90
35960;DHT22;22043;50.970;7.192;2022-10-16T07:09:28;14.40;99.90
35960;DHT22;22043;50.970;7.192;2022-10-16T07:11:53;14.40;99.90
35960;DHT22;22043;50.970;7.192;2022-10-16T07:14:21;14.40;99.90
35960;DHT22;22043;50.970;7.192;2022-10-16T07:16:48;14.50;99.90
35960;DHT22;22043;50.970;7.192;2022-10-16T07:19:14;14.50;99.90
35960;DHT22;22043;50.970;7.192;2022-10-16T07:21:42;14.50;99.90
35960;DHT22;22043;50.970;7.192;2022-10-16T07:24:13;14.60;99.90
35960;DHT22;22043;50.970;7.192;2022-10-16T07:26:40;14.60;99.90
35960;DHT22;22043;50.970;7.192;2022-10-16T07:29:11;14.60;99.90
35960;DHT22;22043;50.970;7.192;2022-10-16T07:31:38;14.60;99.90
35960;DHT22;22043;50.970;7.192;2022-10-16T07:34:04;14.60;99.90
35960;DHT22;22043;50.970;7.192;2022-10-16T07:36:30;14.70;99.90
35960;DHT22;22043;50.970;7.192;2022-10-16T07:38:55;14.70;99.90
35960;DHT22;22043;50.970;7.192;2022-10-16T07:41:21;14.70;99.90
35960;DHT22;22043;50.970;7.192;2022-10-16T07:43:49;14.70;99.90
35960;DHT22;22043;50.970;7.192;2022-10-16T07:46:15;14.70;99.90
35960;DHT22;22043;50.970;7.192;2022-10-16T07:48:42;14.70;99.90
35960;DHT22;22043;50.970;7.192;2022-10-16T07:51:12;14.80;99.90
35960;DHT22;22043;50.970;7.192;2022-10-16T07:53:38;14.70;99.90
35960;DHT22;22043;50.970;7.192;2022-10-16T07:56:05;14.80;99.90
35960;DHT22;22043;50.970;7.192;2022-10-16T07:58:32;14.70;99.90
35960;DHT22;22043;50.970;7.192;2022-10-16T08:00:58;14.70;99.90
35960;DHT22;22043;50.970;7.192;2022-10-16T08:03:25;14.70;99.90
35960;DHT22;22043;50.970;7.192;2022-10-16T08:05:50;14.70;99.90
35960;DHT22;22043;50.970;7.192;2022-10-16T08:08:17;14.70;99.90
35960;DHT22;22043;50.970;7.192;2022-10-16T08:10:43;14.60;99.90
35960;DHT22;22043;50.970;7.192;2022-10-16T08:13:09;14.60;99.90
35960;DHT22;22043;50.970;7.192;2022-10-16T08:15:35;14.60;99.90
35960;DHT22;22043;50.970;7.192;2022-10-16T08:18:03;14.70;99.90
35960;DHT22;22043;50.970;7.192;2022-10-16T08:20:30;14.60;99.90
35960;DHT22;22043;50.970;7.192;2022-10-16T08:22:56;14.60;99.90
35960;DHT22;22043;50.970;7.192;2022-10-16T08:25:23;14.60;99.90
35960;DHT22;22043;50.970;7.192;2022-10-16T08:27:49;14.60;99.90
35960;DHT22;22043;50.970;7.192;2022-10-16T08:30:15;14.70;99.90
35960;DHT22;22043;50.970;7.192;2022-10-16T08:32:41;14.60;99.90
35960;DHT22;22043;50.970;7.192;2022-10-16T08:35:11;14.70;99.90
35960;DHT22;22043;50.970;7.192;2022-10-16T08:37:38;14.70;99.90
35960;DHT22;22043;50.970;7.192;2022-10-16T08:40:06;14.70;99.90
35960;DHT22;22043;50.970;7.192;2022-10-16T08:50:45;14.80;99.90
35960;DHT22;22043;50.970;7.192;2022-10-16T08:53:35;14.80;99.90
35960;DHT22;22043;50.970;7.192;2022-10-16T08:56:01;14.80;99.90
35960;DHT22;22043;50.970;7.192;2022-10-16T08:58:29;14.80;99.90
35960;DHT22;22043;50.970;7.192;2022-10-16T09:00:56;14.80;99.90
35960;DHT22;22043;50.970;7.192;2022-10-16T09:04:04;14.80;99.90
35960;DHT22;22043;50.970;7.192;2022-10-16T09:12:10;14.90;99.90
35960;DHT22;22043;50.970;7.192;2022-10-16T09:15:07;14.90;99.90
35960;DHT22;22043;50.970;7.192;2022-10-16T09:17:45;14.90;99.90
35960;DHT22;22043;50.970;7.192;2022-10-16T09:20:31;14.90;99.90
35960;DHT22;22043;50.970;7.192;2022-10-16T09:23:10;14.90;99.90
35960;DHT22;22043;50.970;7.192;2022-10-16T09:25:39;14.90;99.90
35960;DHT22;22043;50.970;7.192;2022-10-16T09:28:07;14.90;99.90
35960;DHT22;22043;50.970;7.192;2022-10-16T09:30:34;14.90;99.90
35960;DHT22;22043;50.970;7.192;2022-10-16T09:33:03;14.90;99.90
35960;DHT22;22043;50.970;7.192;2022-10-16T09:38:04;14.90;99.90
35960;DHT22;22043;50.970;7.192;2022-10-16T09:40:36;15.00;99.90
35960;DHT22;22043;50.970;7.192;2022-10-16T09:45:31;15.00;99.90
35960;DHT22;22043;50.970;7.192;2022-10-16T09:47:58;15.00;99.90
35960;DHT22;22043;50.970;7.192;2022-10-16T09:50:28;15.00;99.90
35960;DHT22;22043;50.970;7.192;2022-10-16T09:53:11;15.00;99.90
35960;DHT22;22043;50.970;7.192;2022-10-16T09:55:50;15.00;99.90
35960;DHT22;22043;50.970;7.192;2022-10-16T09:58:16;15.10;99.90
35960;DHT22;22043;50.970;7.192;2022-10-16T10:00:52;15.10;99.90
35960;DHT22;22043;50.970;7.192;2022-10-16T10:03:40;15.20;99.90
35960;DHT22;22043;50.970;7.192;2022-10-16T10:06:21;15.20;99.90
35960;DHT22;22043;50.970;7.192;2022-10-16T10:14:23;15.30;99.90
35960;DHT22;22043;50.970;7.192;2022-10-16T10:16:51;15.30;99.90
35960;DHT22;22043;50.970;7.192;2022-10-16T10:19:23;15.30;99.90
35960;DHT22;22043;50.970;7.192;2022-10-16T10:21:50;15.40;99.90
35960;DHT22;22043;50.970;7.192;2022-10-16T10:24:18;15.40;99.90
35960;DHT22;22043;50.970;7.192;2022-10-16T10:27:05;15.40;99.90
35960;DHT22;22043;50.970;7.192;2022-10-16T10:32:26;15.30;99.90
35960;DHT22;22043;50.970;7.192;2022-10-16T10:38:09;15.40;99.90
35960;DHT22;22043;50.970;7.192;2022-10-16T10:57:48;15.50;99.90
35960;DHT22;22043;50.970;7.192;2022-10-16T11:12:00;15.60;99.90
35960;DHT22;22043;50.970;7.192;2022-10-16T11:14:51;15.70;99.90
35960;DHT22;22043;50.970;7.192;2022-10-16T11:17:25;15.70;99.90
35960;DHT22;22043;50.970;7.192;2022-10-16T11:20:18;15.70;99.90
35960;DHT22;22043;50.970;7.192;2022-10-16T11:22:55;15.70;99.90
35960;DHT22;22043;50.970;7.192;2022-10-16T11:25:29;15.70;99.90
35960;DHT22;22043;50.970;7.192;2022-10-16T11:31:11;15.70;99.90
35960;DHT22;22043;50.970;7.192;2022-10-16T11:33:46;15.70;99.90
35960;DHT22;22043;50.970;7.192;2022-10-16T11:36:23;15.70;99.90
35960;DHT22;22043;50.970;7.192;2022-10-16T11:46:46;15.80;99.90
35960;DHT22;22043;50.970;7.192;2022-10-16T11:49:16;15.80;99.90
35960;DHT22;22043;50.970;7.192;2022-10-16T11:54:49;15.90;99.90
35960;DHT22;22043;50.970;7.192;2022-10-16T11:57:21;15.90;99.90
35960;DHT22;22043;50.970;7.192;2022-10-16T12:00:14;15.90;99.90
35960;DHT22;22043;50.970;7.192;2022-10-16T12:08:29;16.00;99.90
35960;DHT22;22043;50.970;7.192;2022-10-16T12:11:07;16.00;99.90
35960;DHT22;22043;50.970;7.192;2022-10-16T12:13:39;16.10;99.90
35960;DHT22;22043;50.970;7.192;2022-10-16T12:18:39;16.20;99.90
35960;DHT22;22043;50.970;7.192;2022-10-16T12:21:05;16.20;99.90
35960;DHT22;22043;50.970;7.192;2022-10-16T12:23:53;16.20;99.90
35960;DHT22;22043;50.970;7.192;2022-10-16T12:26:27;16.30;99.90
35960;DHT22;22043;50.970;7.192;2022-10-16T12:28:54;16.30;99.90
35960;DHT22;22043;50.970;7.192;2022-10-16T12:31:21;16.30;99.90
35960;DHT22;22043;50.970;7.192;2022-10-16T12:34:03;16.30;99.90
35960;DHT22;22043;50.970;7.192;2022-10-16T12:36:35;16.30;99.90
35960;DHT22;22043;50.970;7.192;2022-10-16T12:39:02;16.30;99.90
35960;DHT22;22043;50.970;7.192;2022-10-16T12:41:30;16.30;99.90
35960;DHT22;22043;50.970;7.192;2022-10-16T12:43:56;16.30;99.90
35960;DHT22;22043;50.970;7.192;2022-10-16T12:49:50;16.30;99.90
35960;DHT22;22043;50.970;7.192;2022-10-16T12:51:51;16.30;99.90
35960;DHT22;22043;50.970;7.192;2022-10-16T12:54:31;16.40;99.90
35960;DHT22;22043;50.970;7.192;2022-10-16T13:00:28;16.40;99.90
35960;DHT22;22043;50.970;7.192;2022-10-16T13:05:32;16.30;99.90
35960;DHT22;22043;50.970;7.192;2022-10-16T13:10:44;16.30;99.90
35960;DHT22;22043;50.970;7.192;2022-10-16T13:25:08;16.40;99.90
35960;DHT22;22043;50.970;7.192;2022-10-16T13:27:56;16.40;99.90
35960;DHT22;22043;50.970;7.192;2022-10-16T13:30:27;16.50;99.90
35960;DHT22;22043;50.970;7.192;2022-10-16T13:35:35;16.50;99.90
35960;DHT22;22043;50.970;7.192;2022-10-16T13:38:20;16.50;99.90
35960;DHT22;22043;50.970;7.192;2022-10-16T13:40:50;16.60;99.90
35960;DHT22;22043;50.970;7.192;2022-10-16T13:43:24;16.60;99.90
35960;DHT22;22043;50.970;7.192;2022-10-16T13:45:59;16.60;99.90
35960;DHT22;22043;50.970;7.192;2022-10-16T13:48:25;16.60;99.90
35960;DHT22;22043;50.970;7.192;2022-10-16T13:51:15;16.70;99.90
35960;DHT22;22043;50.970;7.192;2022-10-16T13:53:41;16.70;99.90
35960;DHT22;22043;50.970;7.192;2022-10-16T13:56:12;16.70;99.90
35960;DHT22;22043;50.970;7.192;2022-10-16T13:58:39;16.70;99.90
35960;DHT22;22043;50.970;7.192;2022-10-16T14:03:41;16.70;99.90
35960;DHT22;22043;50.970;7.192;2022-10-16T14:06:13;16.70;99.90
35960;DHT22;22043;50.970;7.192;2022-10-16T14:08:46;16.70;99.90
35960;DHT22;22043;50.970;7.192;2022-10-16T14:11:21;16.70;99.90
35960;DHT22;22043;50.970;7.192;2022-10-16T14:13:48;16.70;99.90
35960;DHT22;22043;50.970;7.192;2022-10-16T14:16:22;16.70;99.90
35960;DHT22;22043;50.970;7.192;2022-10-16T14:18:59;16.70;99.90
35960;DHT22;22043;50.970;7.192;2022-10-16T14:21:25;16.80;99.90
35960;DHT22;22043;50.970;7.192;2022-10-16T14:23:52;16.70;99.90
35960;DHT22;22043;50.970;7.192;2022-10-16T14:26:21;16.70;99.90
35960;DHT22;22043;50.970;7.192;2022-10-16T14:28:49;16.70;99.90
35960;DHT22;22043;50.970;7.192;2022-10-16T14:31:31;16.70;99.90
35960;DHT22;22043;50.970;7.192;2022-10-16T14:33:58;16.70;99.90
35960;DHT22;22043;50.970;7.192;2022-10-16T14:36:26;16.70;99.90
35960;DHT22;22043;50.970;7.192;2022-10-16T14:39:02;16.60;99.90
35960;DHT22;22043;50.970;7.192;2022-10-16T14:41:30;16.60;99.90
35960;DHT22;22043;50.970;7.192;2022-10-16T14:43:56;16.60;99.90
35960;DHT22;22043;50.970;7.192;2022-10-16T14:46:32;16.60;99.90
35960;DHT22;22043;50.970;7.192;2022-10-16T14:49:17;16.60;99.90
35960;DHT22;22043;50.970;7.192;2022-10-16T14:51:43;16.60;99.90
35960;DHT22;22043;50.970;7.192;2022-10-16T14:54:11;16.60;99.90
35960;DHT22;22043;50.970;7.192;2022-10-16T14:59:24;16.50;99.90
35960;DHT22;22043;50.970;7.192;2022-10-16T15:01:51;16.50;99.90
35960;DHT22;22043;50.970;7.192;2022-10-16T15:04:16;16.50;99.90
35960;DHT22;22043;50.970;7.192;2022-10-16T15:06:43;16.60;99.90
35960;DHT22;22043;50.970;7.192;2022-10-16T15:09:08;16.60;99.90
35960;DHT22;22043;50.970;7.192;2022-10-16T15:11:34;16.60;99.90
35960;DHT22;22043;50.970;7.192;2022-10-16T15:14:00;16.60;99.90
35960;DHT22;22043;50.970;7.192;2022-10-16T15:16:26;16.60;99.90
35960;DHT22;22043;50.970;7.192;2022-10-16T15:18:52;16.60;99.90
35960;DHT22;22043;50.970;7.192;2022-10-16T15:21:30;16.50;99.90
35960;DHT22;22043;50.970;7.192;2022-10-16T15:23:57;16.50;99.90
35960;DHT22;22043;50.970;7.192;2022-10-16T15:26:28;16.50;99.90
35960;DHT22;22043;50.970;7.192;2022-10-16T15:28:54;16.50;99.90
35960;DHT22;22043;50.970;7.192;2022-10-16T15:31:20;16.50;99.90
35960;DHT22;22043;50.970;7.192;2022-10-16T15:33:49;16.50;99.90
35960;DHT22;22043;50.970;7.192;2022-10-16T15:36:25;16.50;99.90
35960;DHT22;22043;50.970;7.192;2022-10-16T15:38:51;16.50;99.90
35960;DHT22;22043;50.970;7.192;2022-10-16T15:41:16;16.50;99.90
35960;DHT22;22043;50.970;7.192;2022-10-16T15:43:42;16.40;99.90
35960;DHT22;22043;50.970;7.192;2022-10-16T15:46:11;16.40;99.90
35960;DHT22;22043;50.970;7.192;2022-10-16T15:48:39;16.40;99.90
35960;DHT22;22043;50.970;7.192;2022-10-16T15:51:07;16.40;99.90
35960;DHT22;22043;50.970;7.192;2022-10-16T15:53:33;16.30;99.90
35960;DHT22;22043;50.970;7.192;2022-10-16T15:56:04;16.40;99.90
35960;DHT22;22043;50.970;7.192;2022-10-16T15:58:29;16.40;99.90
35960;DHT22;22043;50.970;7.192;2022-10-16T16:00:56;16.30;99.90
35960;DHT22;22043;50.970;7.192;2022-10-16T16:03:22;16.30;99.90
35960;DHT22;22043;50.970;7.192;2022-10-16T16:05:48;16.30;99.90
35960;DHT22;22043;50.970;7.192;2022-10-16T16:08:14;16.30;99.90
35960;DHT22;22043;50.970;7.192;2022-10-16T16:10:39;16.30;99.90
35960;DHT22;22043;50.970;7.192;2022-10-16T16:13:05;16.30;99.90
35960;DHT22;22043;50.970;7.192;2022-10-16T16:15:30;16.30;99.90
35960;DHT22;22043;50.970;7.192;2022-10-16T16:17:56;16.30;99.90
35960;DHT22;22043;50.970;7.192;2022-10-16T16:20:22;16.30;99.90
35960;DHT22;22043;50.970;7.192;2022-10-16T16:22:48;16.30;99.90
35960;DHT22;22043;50.970;7.192;2022-10-16T16:25:13;16.30;99.90
35960;DHT22;22043;50.970;7.192;2022-10-16T16:27:39;16.20;99.90
35960;DHT22;22043;50.970;7.192;2022-10-16T16:30:07;16.20;99.90
35960;DHT22;22043;50.970;7.192;2022-10-16T16:32:33;16.20;99.90
35960;DHT22;22043;50.970;7.192;2022-10-16T16:35:00;16.20;99.90
35960;DHT22;22043;50.970;7.192;2022-10-16T16:37:26;16.20;99.90
35960;DHT22;22043;50.970;7.192;2022-10-16T16:39:51;16.20;99.90
35960;DHT22;22043;50.970;7.192;2022-10-16T16:42:17;16.20;99.90
35960;DHT22;22043;50.970;7.192;2022-10-16T16:44:43;16.20;99.90
35960;DHT22;22043;50.970;7.192;2022-10-16T16:47:09;16.20;99.90
35960;DHT22;22043;50.970;7.192;2022-10-16T16:49:35;16.20;99.90
35960;DHT22;22043;50.970;7.192;2022-10-16T16:52:00;16.20;99.90
35960;DHT22;22043;50.970;7.192;2022-10-16T16:54:26;16.20;99.90
35960;DHT22;22043;50.970;7.192;2022-10-16T16:56:52;16.20;99.90
35960;DHT22;22043;50.970;7.192;2022-10-16T16:59:20;16.20;99.90
35960;DHT22;22043;50.970;7.192;2022-10-16T17:01:47;16.10;99.90
35960;DHT22;22043;50.970;7.192;2022-10-16T17:04:14;16.10;99.90
35960;DHT22;22043;50.970;7.192;2022-10-16T17:06:44;16.10;99.90
35960;DHT22;22043;50.970;7.192;2022-10-16T17:09:10;16.20;99.90
35960;DHT22;22043;50.970;7.192;2022-10-16T17:11:38;16.10;99.90
35960;DHT22;22043;50.970;7.192;2022-10-16T17:14:07;16.10;99.90
35960;DHT22;22043;50.970;7.192;2022-10-16T17:16:35;16.10;99.90
35960;DHT22;22043;50.970;7.192;2022-10-16T17:19:10;16.10;99.90
35960;DHT22;22043;50.970;7.192;2022-10-16T17:21:36;16.10;99.90
35960;DHT22;22043;50.970;7.192;2022-10-16T17:24:02;16.10;99.90
35960;DHT22;22043;50.970;7.192;2022-10-16T17:26:28;16.10;99.90
35960;DHT22;22043;50.970;7.192;2022-10-16T17:28:56;16.10;99.90
35960;DHT22;22043;50.970;7.192;2022-10-16T17:31:23;16.10;99.90
35960;DHT22;22043;50.970;7.192;2022-10-16T17:33:49;16.10;99.90
35960;DHT22;22043;50.970;7.192;2022-10-16T17:36:17;16.10;99.90
35960;DHT22;22043;50.970;7.192;2022-10-16T17:38:43;16.10;99.90
35960;DHT22;22043;50.970;7.192;2022-10-16T17:41:14;16.10;99.90
35960;DHT22;22043;50.970;7.192;2022-10-16T17:43:40;16.20;99.90
35960;DHT22;22043;50.970;7.192;2022-10-16T17:46:08;16.10;99.90
35960;DHT22;22043;50.970;7.192;2022-10-16T17:48:38;16.20;99.90
35960;DHT22;22043;50.970;7.192;2022-10-16T17:51:08;16.20;99.90
35960;DHT22;22043;50.970;7.192;2022-10-16T17:53:36;16.20;99.90